This is the latest recevied weather packets stored in our database for station/object ALTO-WX. If no packets are shown the sender has not sent any weather packets the latest 10 day(s).
| Time | Temp. | Humidity | Pressure | Rain* | Wind** | Luminosity | Snow |
|---|---|---|---|---|---|---|---|
| 1777843852 | 12.78° C | 53% | 979.6 hPa | 0 mm | - | - | - |
| 1777842934 | 13.33° C | 53% | 979.5 hPa | 0 mm | - | - | - |
| 1777842062 | 13.33° C | 53% | 979.5 hPa | 0 mm | - | - | - |
| 1777841134 | 13.89° C | 49% | 980.5 hPa | 0 mm | - | - | - |
| 1777840253 | 14.44° C | 52% | 980.2 hPa | 0 mm | - | - | - |
| 1777839334 | 14.44° C | 52% | 980.2 hPa | 0 mm | - | - | - |
| 1777838463 | 13.89° C | 52% | 980.2 hPa | 0 mm | - | - | - |
| 1777837534 | 13.89° C | 52% | 980.6 hPa | 0 mm | - | - | - |
| 1777836656 | 14.44° C | 52% | 980.6 hPa | 0 mm | - | - | - |
| 1777835735 | 14.44° C | 52% | 980.6 hPa | 0 mm | - | - | - |
| 1777834865 | 14.44° C | 52% | 980.6 hPa | 0 mm | - | - | - |
| 1777833935 | 14.44° C | 45% | 981.6 hPa | 0 mm | - | - | - |
| 1777833343 | 15° C | 45% | 981.6 hPa | 0 mm | - | - | - |
| 1777832134 | 15° C | 48% | 981.8 hPa | 0 mm | - | - | - |
| 1777831265 | 14.44° C | 48% | 981.8 hPa | 0 mm | - | - | - |
| 1777830333 | 14.44° C | 43% | 982.1 hPa | 0 mm | - | - | - |
| 1777829453 | 14.44° C | 43% | 981.5 hPa | 0 mm | - | - | - |
| 1777827662 | 14.44° C | 43% | 981.5 hPa | 0 mm | - | - | - |
| 1777826734 | 13.89° C | 47% | 981.9 hPa | 0 mm | - | - | - |
| 1777825850 | 13.33° C | 53% | 980.8 hPa | 0 mm | - | - | - |
| 1777824933 | 12.78° C | 53% | 980.8 hPa | 0 mm | - | - | - |
| 1777824069 | 11.67° C | 53% | 980.8 hPa | 0 mm | - | - | - |
| 1777823134 | 11.67° C | 49% | 982.5 hPa | 0 mm | - | - | - |
| 1777822250 | 12.22° C | 53% | 982.1 hPa | 0 mm | - | - | - |
| 1777821334 | 11.67° C | 53% | 982.1 hPa | 0 mm | - | - | - |
* Rain latest hour (hover to see other rain measurements)
** Current wind speed in m/s (hover to see current wind gust speed)